This is the latest recevied weather packets stored in our database for station/object K1AWR. If no packets are shown the sender has not sent any weather packets the latest 10 day(s).
| Time | Temp. | Humidity | Pressure | Rain* | Wind** | Luminosity | Snow |
|---|---|---|---|---|---|---|---|
| 1778005647 | 27.22° C | 44% | 1007.6 hPa | 0 mm | - | 689 W/m² | - |
| 1778005344 | 27.78° C | 42% | 1008 hPa | 0 mm | - | 694 W/m² | - |
| 1778005040 | 27.78° C | 42% | 1007.7 hPa | 0 mm | - | 711 W/m² | - |
| 1778004738 | 27.22° C | 41% | 1008 hPa | 0 mm | - | 714 W/m² | - |
| 1778004434 | 27.22° C | 45% | 1008.1 hPa | 0 mm | - | 721 W/m² | - |
| 1778004131 | 27.22° C | 42% | 1008 hPa | 0 mm | - | 729 W/m² | - |
| 1778003827 | 27.22° C | 45% | 1007.9 hPa | 0 mm | - | 738 W/m² | - |
| 1778003523 | 27.22° C | 43% | 1008.2 hPa | 0 mm | - | 742 W/m² | - |
| 1778003220 | 27.22° C | 43% | 1008.1 hPa | 0 mm | - | 747 W/m² | - |
| 1778002916 | 27.22° C | 44% | 1008.4 hPa | 0 mm | - | 750 W/m² | - |
| 1778002613 | 26.67° C | 44% | 1008.4 hPa | 0 mm | - | 754 W/m² | - |
| 1778002310 | 26.11° C | 44% | 1008.3 hPa | 0 mm | - | 756 W/m² | - |
| 1778002007 | 26.67° C | 43% | 1008.6 hPa | 0 mm | - | 758 W/m² | - |
| 1778001704 | 26.67° C | 43% | 1008.6 hPa | 0 mm | - | 762 W/m² | - |
| 1778001403 | 26.67° C | 44% | 1008.6 hPa | 0 mm | - | 763 W/m² | - |
| 1778001101 | 27.22° C | 44% | 1008.5 hPa | 0 mm | - | 767 W/m² | - |
| 1778000798 | 27.22° C | 44% | 1008.5 hPa | 0 mm | - | 768 W/m² | - |
| 1778000495 | 27.22° C | 44% | 1008.6 hPa | 0 mm | - | 761 W/m² | - |
| 1778000195 | 26.11° C | 47% | 1008.9 hPa | 0 mm | - | 770 W/m² | - |
| 1777999891 | 26.11° C | 46% | 1008.7 hPa | 0 mm | - | 770 W/m² | - |
| 1777999587 | 26.67° C | 43% | 1008.9 hPa | 0 mm | - | 771 W/m² | - |
| 1777999285 | 26.11° C | 49% | 1009.2 hPa | 0 mm | - | 770 W/m² | - |
| 1777998983 | 26.67° C | 44% | 1009.3 hPa | 0 mm | - | 769 W/m² | - |
| 1777998680 | 25.56° C | 49% | 1009.3 hPa | 0 mm | - | 768 W/m² | - |
| 1777998377 | 25° C | 48% | 1009.4 hPa | 0 mm | - | 766 W/m² | - |
* Rain latest hour (hover to see other rain measurements)
** Current wind speed in m/s (hover to see current wind gust speed)